createdAt,value
2022-10-04T00:01:44.131Z,16.17
2022-10-04T00:04:21.422Z,16.77
2022-10-04T00:07:14.604Z,21.30
2022-10-04T00:09:52.344Z,20.25
2022-10-04T00:12:21.888Z,19.40
2022-10-04T00:14:51.053Z,18.33
2022-10-04T00:17:28.197Z,17.48
2022-10-04T00:19:56.337Z,17.00
2022-10-04T00:22:29.129Z,17.13
2022-10-04T00:25:09.944Z,15.43
2022-10-04T00:27:38.847Z,19.05
2022-10-04T00:30:07.083Z,21.25
2022-10-04T00:32:40.503Z,16.83
2022-10-04T00:35:26.463Z,20.30
2022-10-04T00:38:29.736Z,18.00
2022-10-04T00:41:04.607Z,17.58
2022-10-04T00:43:36.867Z,18.83
2022-10-04T00:46:21.408Z,14.60
2022-10-04T00:48:59.076Z,18.63
2022-10-04T00:51:34.434Z,14.75
2022-10-04T00:54:20.224Z,17.13
2022-10-04T00:56:52.516Z,13.80
2022-10-04T00:59:37.579Z,15.55
2022-10-04T01:02:28.712Z,14.32
2022-10-04T01:07:32.810Z,12.13
2022-10-04T01:10:05.354Z,18.50
2022-10-04T01:12:45.360Z,14.35
2022-10-04T01:15:26.855Z,14.68
2022-10-04T01:18:14.395Z,12.20
2022-10-04T01:20:54.441Z,14.35
2022-10-04T01:23:51.784Z,10.07
2022-10-04T01:26:32.293Z,15.48
2022-10-04T01:29:18.302Z,9.68
2022-10-04T01:31:48.825Z,15.48
2022-10-04T01:34:22.210Z,12.73
2022-10-04T01:36:52.598Z,12.02
2022-10-04T01:39:23.123Z,9.15
2022-10-04T01:42:02.592Z,9.00
2022-10-04T01:44:55.368Z,9.88
2022-10-04T01:47:46.979Z,10.00
2022-10-04T01:50:20.448Z,13.48
2022-10-04T01:52:52.970Z,10.35
2022-10-04T01:55:25.793Z,10.95
2022-10-04T01:58:00.827Z,10.07
2022-10-04T02:00:29.378Z,8.50
2022-10-04T02:03:15.337Z,11.77
2022-10-04T02:05:49.450Z,14.18
2022-10-04T02:08:22.099Z,10.90
2022-10-04T02:10:51.509Z,14.43
2022-10-04T02:13:19.264Z,8.75
2022-10-04T02:15:48.395Z,11.00
2022-10-04T02:18:20.656Z,8.20
2022-10-04T02:20:50.526Z,12.52
2022-10-04T02:23:20.579Z,12.25
2022-10-04T02:25:48.323Z,13.52
2022-10-04T02:28:18.339Z,11.38
2022-10-04T02:31:09.654Z,17.03
2022-10-04T02:36:10.769Z,11.60
2022-10-04T02:38:44.416Z,12.95
2022-10-04T02:41:27.008Z,13.73
2022-10-04T02:48:05.803Z,9.85
2022-10-04T02:50:55.672Z,11.30
2022-10-04T02:53:46.128Z,12.82
2022-10-04T02:56:13.853Z,19.55
2022-10-04T02:58:42.304Z,10.35
2022-10-04T03:01:17.973Z,13.40
2022-10-04T03:03:47.463Z,9.63
2022-10-04T03:06:19.162Z,16.33
2022-10-04T03:08:51.542Z,11.85
2022-10-04T03:11:22.713Z,12.00
2022-10-04T03:13:52.891Z,13.35
2022-10-04T03:16:21.769Z,11.43
2022-10-04T03:18:51.852Z,18.65
2022-10-04T03:21:21.766Z,13.43
2022-10-04T03:23:51.778Z,10.60
2022-10-04T03:26:29.111Z,11.95
2022-10-04T03:28:58.897Z,8.70
2022-10-04T03:31:27.892Z,15.32
2022-10-04T03:33:57.309Z,15.10
2022-10-04T03:36:26.441Z,12.77
2022-10-04T03:38:56.909Z,14.82
2022-10-04T03:41:26.042Z,10.70
2022-10-04T03:43:56.078Z,14.02
2022-10-04T03:46:25.236Z,17.70
2022-10-04T03:48:54.438Z,11.35
2022-10-04T03:51:26.402Z,16.13
2022-10-04T03:53:57.394Z,17.17
2022-10-04T03:59:07.433Z,16.58
2022-10-04T04:01:45.213Z,10.43
2022-10-04T04:04:24.959Z,10.63
2022-10-04T04:07:01.439Z,12.32
2022-10-04T04:09:45.800Z,16.48
2022-10-04T04:12:25.000Z,16.40
2022-10-04T04:14:53.845Z,14.10
2022-10-04T04:17:30.001Z,17.90
2022-10-04T04:20:07.410Z,14.02
2022-10-04T04:22:36.377Z,15.73
2022-10-04T04:25:09.136Z,11.95
2022-10-04T04:27:40.606Z,11.98
2022-10-04T04:30:09.190Z,14.88
2022-10-04T04:32:45.359Z,22.38
2022-10-04T04:35:33.162Z,10.18
2022-10-04T04:38:11.606Z,14.68
2022-10-04T04:40:39.027Z,17.05
2022-10-04T04:43:06.823Z,17.02
2022-10-04T04:45:36.253Z,14.88
2022-10-04T04:48:05.915Z,11.70
2022-10-04T04:50:36.646Z,15.57
2022-10-04T04:53:27.688Z,15.48
2022-10-04T04:56:05.002Z,10.27
2022-10-04T04:58:38.165Z,11.02
2022-10-04T05:01:28.293Z,12.13
2022-10-04T05:04:14.157Z,14.32
2022-10-04T05:07:06.354Z,10.45
2022-10-04T05:09:36.099Z,11.45
2022-10-04T05:12:18.072Z,9.55
2022-10-04T05:14:49.048Z,6.95
2022-10-04T05:17:20.961Z,8.35
2022-10-04T05:19:48.617Z,8.00
2022-10-04T05:22:22.378Z,9.98
2022-10-04T05:24:54.579Z,9.32
2022-10-04T05:27:33.148Z,3.97
2022-10-04T05:30:31.125Z,9.35
2022-10-04T05:33:03.555Z,5.43
2022-10-04T05:35:57.496Z,4.35
2022-10-04T05:38:57.804Z,2.95
2022-10-04T05:41:42.058Z,4.82
2022-10-04T05:44:31.575Z,6.03
2022-10-04T05:47:05.367Z,5.63
2022-10-04T05:49:44.309Z,6.57
2022-10-04T05:52:25.254Z,8.05
2022-10-04T05:55:17.873Z,5.32
2022-10-04T05:58:18.375Z,5.20
2022-10-04T06:01:02.702Z,10.18
2022-10-04T06:03:58.028Z,4.75
2022-10-04T06:07:00.633Z,8.23
2022-10-04T06:09:39.766Z,3.80
2022-10-04T06:12:13.359Z,6.93
2022-10-04T06:14:49.899Z,6.68
2022-10-04T06:17:26.216Z,6.65
2022-10-04T06:20:12.519Z,12.23
2022-10-04T06:22:46.016Z,4.65
2022-10-04T06:25:31.523Z,5.38
2022-10-04T06:28:07.648Z,8.60
2022-10-04T06:31:04.174Z,6.97
2022-10-04T06:33:45.982Z,4.53
2022-10-04T06:36:31.852Z,8.82
2022-10-04T06:39:13.134Z,3.70
2022-10-04T06:42:18.753Z,5.45
2022-10-04T06:45:10.539Z,5.72
2022-10-04T06:47:48.675Z,4.07
2022-10-04T06:50:41.074Z,3.10
2022-10-04T06:53:33.081Z,10.35
2022-10-04T06:56:31.377Z,6.60
2022-10-04T06:59:18.602Z,6.22
2022-10-04T07:02:04.171Z,5.93
2022-10-04T07:05:06.487Z,3.13
2022-10-04T07:07:41.982Z,5.03
2022-10-04T07:10:23.719Z,4.32
2022-10-04T07:13:02.778Z,6.03
2022-10-04T07:15:45.257Z,8.20
2022-10-04T07:18:19.734Z,4.88
2022-10-04T07:20:49.024Z,8.15
2022-10-04T07:23:27.573Z,13.90
2022-10-04T07:26:01.647Z,7.38
2022-10-04T07:28:52.388Z,5.90
2022-10-04T07:31:28.098Z,5.65
2022-10-04T07:34:02.379Z,3.85
2022-10-04T07:36:51.915Z,3.72
2022-10-04T07:39:47.623Z,5.22
2022-10-04T07:42:21.053Z,5.32
2022-10-04T07:45:17.667Z,4.93
2022-10-04T07:47:45.178Z,6.53
2022-10-04T07:50:35.368Z,8.73
2022-10-04T07:53:15.323Z,4.80
2022-10-04T07:55:52.707Z,6.65
2022-10-04T07:58:26.383Z,6.60
2022-10-04T08:00:53.893Z,5.78
2022-10-04T08:03:33.310Z,7.15
2022-10-04T08:06:23.821Z,3.78
2022-10-04T08:09:02.827Z,2.80
2022-10-04T08:11:44.989Z,3.67
2022-10-04T08:14:45.665Z,4.07
2022-10-04T08:17:24.196Z,5.82
2022-10-04T08:20:02.365Z,3.88
2022-10-04T08:22:48.603Z,4.35
2022-10-04T08:25:28.284Z,1.88
2022-10-04T08:28:53.698Z,4.32
2022-10-04T08:31:39.371Z,4.90
2022-10-04T08:34:06.971Z,4.50
2022-10-04T08:36:56.172Z,1.42
2022-10-04T08:39:55.578Z,5.05
2022-10-04T08:42:28.934Z,2.58
2022-10-04T08:45:17.019Z,3.90
2022-10-04T08:48:22.552Z,2.03
2022-10-04T08:51:14.258Z,7.95
2022-10-04T08:54:13.548Z,4.53
2022-10-04T08:57:22.555Z,3.30
2022-10-04T09:00:08.676Z,3.78
2022-10-04T09:02:54.600Z,3.20
2022-10-04T09:05:34.368Z,3.67
2022-10-04T09:08:20.775Z,2.75
2022-10-04T09:11:21.748Z,0.73
2022-10-04T09:14:04.418Z,1.48
2022-10-04T09:16:55.786Z,3.92
2022-10-04T09:19:31.748Z,1.73
2022-10-04T09:22:11.566Z,1.58
2022-10-04T09:25:12.885Z,6.95
2022-10-04T09:31:08.958Z,2.67
2022-10-04T09:33:53.467Z,2.45
2022-10-04T09:36:42.777Z,3.78
2022-10-04T09:39:29.961Z,9.60
2022-10-04T09:42:39.629Z,5.63
2022-10-04T09:45:07.508Z,7.65
2022-10-04T09:48:16.997Z,3.85
2022-10-04T09:51:08.301Z,4.38
2022-10-04T09:53:46.562Z,6.82
2022-10-04T09:56:43.120Z,2.47
2022-10-04T09:59:39.829Z,3.70
2022-10-04T10:02:29.233Z,4.43
2022-10-04T10:05:35.265Z,2.70
2022-10-04T10:08:28.435Z,5.65
2022-10-04T10:11:34.619Z,5.45
2022-10-04T10:14:19.721Z,6.90
2022-10-04T10:16:53.463Z,4.07
2022-10-04T10:20:01.573Z,5.72
2022-10-04T10:22:53.850Z,5.85
2022-10-04T10:25:35.858Z,4.43
2022-10-04T10:28:48.732Z,3.17
2022-10-04T10:31:27.935Z,7.55
2022-10-04T10:34:13.655Z,8.18
2022-10-04T10:37:18.925Z,4.95
2022-10-04T10:39:56.671Z,5.32
2022-10-04T10:42:42.817Z,4.40
2022-10-04T10:45:26.638Z,3.95
2022-10-04T10:48:20.084Z,6.97
2022-10-04T10:51:12.198Z,6.13
2022-10-04T10:54:17.067Z,2.95
2022-10-04T10:56:59.483Z,12.73
2022-10-04T10:59:57.150Z,2.15
2022-10-04T11:02:49.875Z,2.72
2022-10-04T11:05:27.015Z,5.75
2022-10-04T11:08:00.356Z,2.90
2022-10-04T11:10:53.848Z,2.95
2022-10-04T11:13:50.346Z,3.45
2022-10-04T11:16:38.824Z,1.90
2022-10-04T11:19:29.385Z,1.50
2022-10-04T11:22:11.627Z,3.05
2022-10-04T11:24:45.051Z,6.68
2022-10-04T11:27:32.085Z,5.90
2022-10-04T11:30:23.545Z,4.88
2022-10-04T11:32:53.745Z,3.55
2022-10-04T11:35:44.977Z,2.33
2022-10-04T11:38:30.163Z,4.40
2022-10-04T11:41:13.664Z,5.25
2022-10-04T11:44:16.407Z,2.33
2022-10-04T11:47:16.018Z,2.65
2022-10-04T11:50:20.481Z,3.35
2022-10-04T11:53:03.183Z,2.25
2022-10-04T11:55:54.404Z,3.03
2022-10-04T11:58:42.821Z,4.15
2022-10-04T12:01:40.706Z,2.67
2022-10-04T12:04:37.173Z,1.83
2022-10-04T12:07:23.180Z,4.80
2022-10-04T12:09:50.545Z,3.28
2022-10-04T12:12:51.533Z,6.15
2022-10-04T12:15:45.342Z,4.38
2022-10-04T12:18:43.929Z,2.92
2022-10-04T12:21:18.165Z,3.28
2022-10-04T12:24:29.781Z,4.18
2022-10-04T12:27:21.879Z,2.25
2022-10-04T12:30:00.141Z,6.07
2022-10-04T12:32:52.219Z,3.40
2022-10-04T12:35:40.655Z,4.38
2022-10-04T12:38:14.518Z,5.28
2022-10-04T12:40:56.187Z,4.35
2022-10-04T12:43:43.164Z,3.08
2022-10-04T12:46:39.669Z,2.67
2022-10-04T12:49:31.854Z,5.53
2022-10-04T12:51:59.265Z,4.75
2022-10-04T12:54:26.631Z,3.55
2022-10-04T12:57:02.604Z,4.22
2022-10-04T12:59:32.811Z,2.53
2022-10-04T13:02:39.216Z,4.38
2022-10-04T13:05:18.135Z,6.93
2022-10-04T13:08:10.144Z,2.13
2022-10-04T13:11:03.233Z,4.80
2022-10-04T13:13:36.780Z,4.45
2022-10-04T13:19:34.940Z,5.13
2022-10-04T13:22:55.284Z,3.95
2022-10-04T13:25:30.921Z,3.97
2022-10-04T13:28:05.781Z,3.85
2022-10-04T13:30:49.884Z,4.63
2022-10-04T13:33:45.420Z,2.92
2022-10-04T13:36:26.903Z,5.95
2022-10-04T13:39:09.526Z,4.35
2022-10-04T13:41:43.432Z,2.40
2022-10-04T13:44:20.932Z,2.63
2022-10-04T13:47:00.928Z,7.75
2022-10-04T13:49:43.354Z,3.78
2022-10-04T13:52:58.492Z,5.28
2022-10-04T13:55:50.453Z,5.25
2022-10-04T13:58:41.165Z,4.70
2022-10-04T14:01:37.934Z,2.90
2022-10-04T14:04:23.811Z,4.68
2022-10-04T14:07:03.088Z,5.05
2022-10-04T14:09:46.835Z,6.22
2022-10-04T14:12:30.839Z,3.22
2022-10-04T14:15:19.629Z,6.38
2022-10-04T14:18:12.606Z,2.88
2022-10-04T14:21:01.503Z,5.03
2022-10-04T14:24:02.803Z,4.25
2022-10-04T14:26:55.931Z,1.50
2022-10-04T14:29:54.557Z,5.97
2022-10-04T14:32:36.669Z,3.53
2022-10-04T14:35:12.692Z,2.08
2022-10-04T14:38:01.503Z,4.65
2022-10-04T14:40:56.375Z,5.03
2022-10-04T14:44:20.972Z,4.97
2022-10-04T14:46:56.984Z,5.80
2022-10-04T14:49:30.866Z,5.10
2022-10-04T14:52:04.589Z,6.20
2022-10-04T14:55:04.440Z,7.43
2022-10-04T14:57:56.398Z,1.42
2022-10-04T15:00:31.325Z,2.97
2022-10-04T15:03:17.590Z,4.38
2022-10-04T15:05:55.094Z,2.17
2022-10-04T15:08:22.490Z,5.47
2022-10-04T15:10:53.560Z,2.25
2022-10-04T15:13:39.445Z,4.13
2022-10-04T15:16:24.713Z,3.30
2022-10-04T15:19:31.400Z,6.68
2022-10-04T15:22:07.493Z,2.00
2022-10-04T15:24:47.897Z,5.40
2022-10-04T15:27:27.233Z,3.60
2022-10-04T15:30:21.627Z,4.28
2022-10-04T15:33:27.359Z,3.25
2022-10-04T15:35:57.776Z,9.38
2022-10-04T15:38:32.824Z,7.70
2022-10-04T15:41:06.360Z,3.10
2022-10-04T15:43:43.718Z,4.60
2022-10-04T15:46:38.718Z,3.78
2022-10-04T15:49:32.936Z,6.90
2022-10-04T15:52:18.467Z,5.15
2022-10-04T15:55:23.161Z,3.45
2022-10-04T15:58:19.969Z,8.90
2022-10-04T16:00:53.792Z,3.60
2022-10-04T16:03:58.592Z,5.13
2022-10-04T16:06:32.776Z,3.08
2022-10-04T16:09:24.844Z,5.97
2022-10-04T16:12:07.215Z,6.50
2022-10-04T16:14:37.428Z,4.03
2022-10-04T16:17:41.754Z,6.30
2022-10-04T16:20:15.569Z,7.20
2022-10-04T16:23:32.337Z,5.65
2022-10-04T16:26:19.564Z,5.88
2022-10-04T16:29:24.468Z,2.45
2022-10-04T16:32:10.531Z,4.78
2022-10-04T16:35:00.308Z,7.65
2022-10-04T16:37:31.465Z,9.40
2022-10-04T16:40:24.142Z,6.68
2022-10-04T16:42:57.129Z,6.57
2022-10-04T16:46:02.308Z,6.55
2022-10-04T16:48:41.842Z,4.13
2022-10-04T16:51:18.633Z,5.28
2022-10-04T16:54:28.960Z,2.72
2022-10-04T16:56:58.036Z,3.78
2022-10-04T16:59:38.086Z,6.18
2022-10-04T17:02:49.145Z,9.13
2022-10-04T17:05:20.171Z,7.85
2022-10-04T17:10:48.615Z,3.60
2022-10-04T17:13:37.281Z,5.07
2022-10-04T17:16:29.311Z,4.55
2022-10-04T17:19:20.798Z,3.35
2022-10-04T17:22:16.067Z,3.85
2022-10-04T17:25:02.405Z,3.38
2022-10-04T17:27:57.755Z,3.92
2022-10-04T17:30:28.121Z,4.20
2022-10-04T17:32:58.192Z,2.23
2022-10-04T17:35:57.300Z,3.00
2022-10-04T17:38:51.305Z,3.40
2022-10-04T17:42:07.590Z,4.90
2022-10-04T17:44:53.622Z,6.80
2022-10-04T17:48:03.383Z,6.22
2022-10-04T17:51:04.993Z,4.25
2022-10-04T17:53:55.355Z,7.50
2022-10-04T17:56:33.267Z,4.70
2022-10-04T17:59:12.444Z,5.45
2022-10-04T18:01:51.934Z,4.20
2022-10-04T18:04:27.996Z,5.90
2022-10-04T18:07:04.295Z,5.20
2022-10-04T18:09:43.438Z,2.35
2022-10-04T18:12:22.786Z,8.13
2022-10-04T18:15:07.287Z,7.90
2022-10-04T18:17:40.210Z,8.30
2022-10-04T18:20:27.085Z,5.88
2022-10-04T18:23:17.965Z,4.30
2022-10-04T18:25:46.003Z,4.25
2022-10-04T18:28:20.867Z,7.20
2022-10-04T18:31:05.844Z,4.45
2022-10-04T18:33:50.257Z,4.57
2022-10-04T18:36:24.552Z,5.57
2022-10-04T18:39:14.372Z,6.88
2022-10-04T18:41:55.101Z,6.13
2022-10-04T18:44:30.078Z,5.28
2022-10-04T18:47:00.140Z,5.18
2022-10-04T18:49:31.117Z,3.73
2022-10-04T18:55:04.391Z,6.43
2022-10-04T18:58:03.271Z,3.75
2022-10-04T19:01:01.992Z,5.55
2022-10-04T19:03:41.053Z,7.00
2022-10-04T19:06:29.424Z,4.97
2022-10-04T19:09:21.303Z,4.53
2022-10-04T19:12:13.109Z,5.07
2022-10-04T19:14:53.547Z,7.28
2022-10-04T19:17:32.199Z,5.75
2022-10-04T19:20:32.017Z,5.93
2022-10-04T19:23:39.269Z,6.47
2022-10-04T19:26:33.204Z,5.20
2022-10-04T19:29:15.637Z,5.03
2022-10-04T19:32:01.940Z,6.55
2022-10-04T19:34:59.650Z,7.38
2022-10-04T19:37:34.273Z,7.72
2022-10-04T19:40:28.559Z,9.15
2022-10-04T19:43:08.330Z,4.97
2022-10-04T19:45:46.307Z,8.02
2022-10-04T19:48:25.571Z,6.40
2022-10-04T19:51:08.683Z,6.72
2022-10-04T19:53:45.199Z,5.15
2022-10-04T19:56:18.770Z,7.97
2022-10-04T19:59:16.493Z,8.15
2022-10-04T20:01:44.902Z,9.98
2022-10-04T20:04:33.676Z,5.05
2022-10-04T20:07:04.529Z,4.07
2022-10-04T20:09:49.524Z,9.25
2022-10-04T20:12:35.979Z,12.90
2022-10-04T20:15:14.886Z,4.88
2022-10-04T20:17:44.133Z,8.43
2022-10-04T20:20:37.071Z,4.32
2022-10-04T20:23:07.677Z,5.68
2022-10-04T20:25:44.346Z,5.68
2022-10-04T20:28:26.816Z,4.03
2022-10-04T20:31:00.853Z,7.43
2022-10-04T20:33:34.428Z,5.55
2022-10-04T20:36:09.014Z,7.28
2022-10-04T20:38:49.372Z,6.57
2022-10-04T20:41:29.051Z,6.73
2022-10-04T20:43:59.134Z,3.90
2022-10-04T20:46:29.917Z,6.90
2022-10-04T20:49:15.716Z,8.27
2022-10-04T20:51:48.572Z,7.43
2022-10-04T20:54:20.256Z,5.85
2022-10-04T20:56:49.999Z,8.27
2022-10-04T20:59:18.293Z,2.97
2022-10-04T21:02:05.170Z,5.30
2022-10-04T21:04:33.606Z,7.63
2022-10-04T21:07:06.055Z,5.70
2022-10-04T21:09:36.013Z,6.15
2022-10-04T21:12:05.024Z,10.40
2022-10-04T21:14:37.759Z,8.70
2022-10-04T21:17:24.312Z,7.20
2022-10-04T21:19:52.010Z,6.57
2022-10-04T21:22:31.209Z,4.63
2022-10-04T21:25:01.708Z,7.85
2022-10-04T21:27:36.438Z,5.70
2022-10-04T21:30:07.279Z,6.40
2022-10-04T21:35:05.256Z,11.27
2022-10-04T21:37:33.469Z,6.95
2022-10-04T21:40:01.231Z,9.68
2022-10-04T21:42:28.739Z,20.23
2022-10-04T21:44:56.336Z,7.05
2022-10-04T21:47:23.953Z,10.40
2022-10-04T21:49:52.112Z,8.43
2022-10-04T21:52:19.521Z,6.25
2022-10-04T21:54:46.977Z,8.98
2022-10-04T21:57:14.569Z,9.25
2022-10-04T21:59:42.057Z,8.07
2022-10-04T22:02:09.646Z,14.25
2022-10-04T22:04:38.243Z,8.95
2022-10-04T22:07:05.983Z,6.45
2022-10-04T22:09:34.534Z,6.30
2022-10-04T22:12:01.933Z,4.78
2022-10-04T22:14:29.369Z,10.15
2022-10-04T22:16:56.838Z,6.30
2022-10-04T22:19:24.237Z,7.55
2022-10-04T22:21:52.821Z,8.73
2022-10-04T22:24:20.987Z,6.60
2022-10-04T22:26:49.220Z,9.10
2022-10-04T22:29:18.877Z,12.68
2022-10-04T22:31:50.721Z,8.73
2022-10-04T22:34:22.962Z,7.65
2022-10-04T22:36:53.970Z,6.75
2022-10-04T22:39:21.709Z,6.03
2022-10-04T22:41:55.487Z,6.35
2022-10-04T22:44:26.061Z,5.47
2022-10-04T22:46:56.039Z,5.95
2022-10-04T22:49:29.517Z,7.50
2022-10-04T22:51:58.947Z,4.72
2022-10-04T22:54:32.034Z,8.00
2022-10-04T22:56:59.713Z,7.18
2022-10-04T22:59:53.404Z,4.57
2022-10-04T23:02:29.403Z,8.80
2022-10-04T23:05:18.560Z,8.90
2022-10-04T23:07:47.381Z,13.02
2022-10-04T23:10:17.821Z,5.90
2022-10-04T23:12:47.865Z,6.00
2022-10-04T23:15:20.327Z,5.18
2022-10-04T23:17:54.507Z,7.72
2022-10-04T23:20:22.357Z,10.10
2022-10-04T23:22:52.929Z,5.32
2022-10-04T23:25:23.375Z,6.07
2022-10-04T23:27:50.809Z,8.80
2022-10-04T23:30:22.693Z,9.57
2022-10-04T23:32:53.443Z,7.43
2022-10-04T23:35:29.701Z,7.85
2022-10-04T23:37:57.259Z,7.53
2022-10-04T23:40:25.762Z,9.13
2022-10-04T23:42:56.538Z,8.80
2022-10-04T23:45:25.357Z,6.82
2022-10-04T23:47:55.786Z,5.35
2022-10-04T23:50:29.726Z,5.32
2022-10-04T23:53:04.480Z,7.45
2022-10-04T23:55:41.765Z,3.38
2022-10-04T23:58:22.421Z,6.70
